createdAt,value
2019-02-02T00:02:02.014Z,99310.34
2019-02-02T00:04:32.569Z,99304.62
2019-02-02T00:07:03.083Z,99295.83
2019-02-02T00:09:33.725Z,99297.94
2019-02-02T00:12:04.239Z,99305.50
2019-02-02T00:14:34.836Z,99310.17
2019-02-02T00:17:05.570Z,99312.22
2019-02-02T00:19:36.159Z,99314.05
2019-02-02T00:22:08.599Z,99317.13
2019-02-02T00:24:39.228Z,99322.75
2019-02-02T00:27:09.761Z,99317.00
2019-02-02T00:29:40.251Z,99325.08
2019-02-02T00:32:10.807Z,99322.56
2019-02-02T00:34:41.346Z,99320.37
2019-02-02T00:37:11.933Z,99325.72
2019-02-02T00:39:42.423Z,99326.84
2019-02-02T00:42:12.950Z,99329.97
2019-02-02T00:44:43.479Z,99328.59
2019-02-02T00:47:14.051Z,99332.73
2019-02-02T00:49:44.678Z,99333.22
2019-02-02T00:52:15.189Z,99336.08
2019-02-02T00:54:45.746Z,99327.74
2019-02-02T00:57:16.304Z,99336.08
2019-02-02T00:59:46.853Z,99341.44
2019-02-02T01:02:17.485Z,99345.32
2019-02-02T01:04:48.082Z,99339.48
2019-02-02T01:07:19.691Z,99329.61
2019-02-02T01:09:50.237Z,99327.39
2019-02-02T01:12:20.754Z,99322.39
2019-02-02T01:14:51.321Z,99324.05
2019-02-02T01:17:21.886Z,99322.36
2019-02-02T01:19:52.406Z,99322.39
2019-02-02T01:22:22.948Z,99324.53
2019-02-02T01:24:53.558Z,99327.74
2019-02-02T01:27:24.090Z,99328.48
2019-02-02T01:29:54.590Z,99328.48
2019-02-02T01:32:25.266Z,99324.05
2019-02-02T01:34:55.741Z,99324.80
2019-02-02T01:37:26.300Z,99320.45
2019-02-02T01:39:56.853Z,99318.98
2019-02-02T01:42:27.372Z,99331.46
2019-02-02T01:44:57.953Z,99333.30
2019-02-02T01:47:28.535Z,99337.02
2019-02-02T01:49:59.146Z,99340.42
2019-02-02T01:52:29.644Z,99337.57
2019-02-02T01:55:00.313Z,99333.50
2019-02-02T01:57:30.855Z,99340.34
2019-02-02T02:00:01.402Z,99348.95
2019-02-02T02:02:31.977Z,99347.72
2019-02-02T02:05:02.500Z,99349.41
2019-02-02T02:07:33.029Z,99349.22
2019-02-02T02:10:03.884Z,99346.53
2019-02-02T02:12:34.483Z,99345.89
2019-02-02T02:15:05.760Z,99344.23
2019-02-02T02:17:36.322Z,99339.41
2019-02-02T02:20:08.481Z,99339.61
2019-02-02T02:22:41.099Z,99335.61
2019-02-02T02:25:14.436Z,99329.70
2019-02-02T02:27:44.992Z,99335.88
2019-02-02T02:30:23.597Z,99332.67
2019-02-02T02:32:54.557Z,99327.30
2019-02-02T02:35:25.081Z,99328.13
2019-02-02T02:37:57.111Z,99327.74
2019-02-02T02:40:28.540Z,99323.95
2019-02-02T02:42:59.161Z,99323.34
2019-02-02T02:45:30.516Z,99320.27
2019-02-02T02:48:01.046Z,99312.22
2019-02-02T02:50:33.758Z,99317.14
2019-02-02T02:53:04.274Z,99309.83
2019-02-02T02:55:34.959Z,99315.84
2019-02-02T02:58:06.103Z,99316.94
2019-02-02T03:00:36.602Z,99319.25
2019-02-02T03:03:07.416Z,99319.34
2019-02-02T03:05:37.951Z,99321.30
2019-02-02T03:08:08.560Z,99320.55
2019-02-02T03:10:39.109Z,99324.16
2019-02-02T03:13:09.774Z,99317.03
2019-02-02T03:15:40.343Z,99317.31
2019-02-02T03:18:10.893Z,99311.67
2019-02-02T03:20:41.454Z,99324.42
2019-02-02T03:23:11.978Z,99322.77
2019-02-02T03:25:42.505Z,99314.36
2019-02-02T03:28:13.101Z,99319.08
2019-02-02T03:30:43.659Z,99318.98
2019-02-02T03:33:14.143Z,99328.41
2019-02-02T03:35:44.728Z,99326.83
2019-02-02T03:38:15.244Z,99332.00
2019-02-02T03:40:45.724Z,99326.09
2019-02-02T03:43:16.277Z,99326.19
2019-02-02T03:45:46.836Z,99322.77
2019-02-02T03:48:17.327Z,99324.80
2019-02-02T03:50:47.852Z,99326.47
2019-02-02T03:53:18.325Z,99333.20
2019-02-02T03:55:49.029Z,99330.99
2019-02-02T03:58:19.689Z,99333.75
2019-02-02T04:00:50.207Z,99327.38
2019-02-02T04:03:20.791Z,99324.59
2019-02-02T04:05:51.526Z,99334.02
2019-02-02T04:08:22.072Z,99332.84
2019-02-02T04:10:52.565Z,99330.52
2019-02-02T04:13:23.127Z,99331.08
2019-02-02T04:15:53.595Z,99336.16
2019-02-02T04:18:24.103Z,99334.77
2019-02-02T04:20:54.625Z,99336.25
2019-02-02T04:23:25.111Z,99333.45
2019-02-02T04:25:58.653Z,99339.05
2019-02-02T04:28:29.126Z,99337.91
2019-02-02T04:30:59.626Z,99333.56
2019-02-02T04:33:30.133Z,99346.05
2019-02-02T04:36:00.597Z,99356.04
2019-02-02T04:38:31.226Z,99352.05
2019-02-02T04:41:01.796Z,99352.88
2019-02-02T04:43:32.301Z,99347.16
2019-02-02T04:46:02.763Z,99336.70
2019-02-02T04:48:33.340Z,99358.24
2019-02-02T04:51:03.829Z,99350.47
2019-02-02T04:53:34.320Z,99353.63
2019-02-02T04:56:04.821Z,99341.67
2019-02-02T04:58:35.311Z,99345.66
2019-02-02T05:01:05.878Z,99327.12
2019-02-02T05:03:36.414Z,99322.66
2019-02-02T05:06:06.921Z,99320.29
2019-02-02T05:08:37.415Z,99313.91
2019-02-02T05:11:07.942Z,99310.68
2019-02-02T05:13:38.457Z,99315.25
2019-02-02T05:16:08.952Z,99314.71
2019-02-02T05:18:39.525Z,99307.48
2019-02-02T05:21:10.097Z,99320.56
2019-02-02T05:23:40.622Z,99324.89
2019-02-02T05:26:11.185Z,99326.82
2019-02-02T05:28:41.667Z,99320.43
2019-02-02T05:31:12.142Z,99324.41
2019-02-02T05:33:42.687Z,99328.51
2019-02-02T05:36:13.268Z,99334.69
2019-02-02T05:38:43.781Z,99342.02
2019-02-02T05:41:14.289Z,99349.33
2019-02-02T05:43:44.790Z,99356.71
2019-02-02T05:46:15.313Z,99353.36
2019-02-02T05:48:45.793Z,99354.97
2019-02-02T05:51:16.282Z,99359.39
2019-02-02T05:53:46.782Z,99351.22
2019-02-02T05:56:17.234Z,99357.75
2019-02-02T05:58:47.713Z,99351.84
2019-02-02T06:01:20.447Z,99355.64
2019-02-02T06:03:51.029Z,99359.39
2019-02-02T06:06:21.533Z,99354.43
2019-02-02T06:08:52.118Z,99357.84
2019-02-02T06:11:22.606Z,99360.86
2019-02-02T06:13:53.141Z,99372.76
2019-02-02T06:16:23.652Z,99370.98
2019-02-02T06:18:54.199Z,99378.76
2019-02-02T06:21:24.691Z,99376.25
2019-02-02T06:23:55.175Z,99378.48
2019-02-02T06:26:25.712Z,99391.76
2019-02-02T06:28:56.387Z,99396.09
2019-02-02T06:31:26.894Z,99391.48
2019-02-02T06:33:57.508Z,99406.11
2019-02-02T06:36:27.980Z,99400.47
2019-02-02T06:38:58.476Z,99403.70
2019-02-02T06:41:28.995Z,99392.52
2019-02-02T06:43:59.506Z,99396.28
2019-02-02T06:46:30.007Z,99403.84
2019-02-02T06:49:01.599Z,99415.91
2019-02-02T06:51:32.286Z,99417.32
2019-02-02T06:54:02.866Z,99415.15
2019-02-02T06:56:33.363Z,99411.38
2019-02-02T06:59:03.883Z,99410.23
2019-02-02T07:01:34.421Z,99418.86
2019-02-02T07:04:07.920Z,99430.52
2019-02-02T07:06:40.181Z,99426.23
2019-02-02T07:09:11.048Z,99417.38
2019-02-02T07:11:41.555Z,99409.33
2019-02-02T07:14:12.455Z,99413.27
2019-02-02T07:16:48.838Z,99414.57
2019-02-02T07:19:19.465Z,99413.63
2019-02-02T07:21:49.959Z,99413.73
2019-02-02T07:24:20.432Z,99418.05
2019-02-02T07:26:50.995Z,99426.95
2019-02-02T07:29:21.514Z,99423.78
2019-02-02T07:31:52.049Z,99424.05
2019-02-02T07:34:22.744Z,99435.98
2019-02-02T07:36:53.228Z,99435.89
2019-02-02T07:39:24.293Z,99447.47
2019-02-02T07:41:54.737Z,99446.31
2019-02-02T07:44:25.279Z,99448.89
2019-02-02T07:46:55.739Z,99439.50
2019-02-02T07:49:26.322Z,99446.84
2019-02-02T07:51:56.825Z,99451.35
2019-02-02T07:54:28.581Z,99463.70
2019-02-02T07:56:59.118Z,99461.95
2019-02-02T07:59:29.593Z,99473.33
2019-02-02T08:02:00.146Z,99468.25
2019-02-02T08:04:30.737Z,99481.11
2019-02-02T08:07:01.296Z,99493.06
2019-02-02T08:09:31.752Z,99500.70
2019-02-02T08:12:02.273Z,99504.59
2019-02-02T08:14:32.779Z,99511.61
2019-02-02T08:17:03.426Z,99513.44
2019-02-02T08:19:34.150Z,99514.00
2019-02-02T08:22:04.750Z,99512.94
2019-02-02T08:24:35.206Z,99509.12
2019-02-02T08:27:05.845Z,99514.89
2019-02-02T08:29:36.354Z,99512.24
2019-02-02T08:32:07.214Z,99506.45
2019-02-02T08:34:37.747Z,99510.87
2019-02-02T08:37:08.247Z,99517.09
2019-02-02T08:39:38.765Z,99516.33
2019-02-02T08:42:09.270Z,99517.41
2019-02-02T08:44:39.747Z,99518.49
2019-02-02T08:47:10.207Z,99511.13
2019-02-02T08:49:40.742Z,99508.02
2019-02-02T08:52:13.142Z,99505.94
2019-02-02T08:54:43.681Z,99506.16
2019-02-02T08:57:14.217Z,99509.90
2019-02-02T08:59:44.678Z,99525.20
2019-02-02T09:02:15.172Z,99521.25
2019-02-02T09:04:45.695Z,99512.86
2019-02-02T09:07:16.212Z,99512.66
2019-02-02T09:09:46.681Z,99519.91
2019-02-02T09:12:17.187Z,99520.62
2019-02-02T09:14:47.707Z,99520.04
2019-02-02T09:17:18.188Z,99521.86
2019-02-02T09:19:48.674Z,99536.55
2019-02-02T09:22:19.214Z,99533.95
2019-02-02T09:24:51.821Z,99539.93
2019-02-02T09:27:21.956Z,99541.05
2019-02-02T09:29:52.557Z,99534.95
2019-02-02T09:32:23.020Z,99543.81
2019-02-02T09:34:53.509Z,99547.59
2019-02-02T09:37:24.073Z,99552.95
2019-02-02T09:39:54.595Z,99559.50
2019-02-02T09:42:25.242Z,99557.14
2019-02-02T09:47:24.852Z,99566.55
2019-02-02T09:49:55.412Z,99573.58
2019-02-02T09:52:25.903Z,99570.44
2019-02-02T09:54:56.484Z,99575.39
2019-02-02T09:57:27.762Z,99569.80
2019-02-02T09:59:58.712Z,99575.31
2019-02-02T10:02:29.267Z,99575.53
2019-02-02T10:04:59.771Z,99580.88
2019-02-02T10:07:30.298Z,99572.88
2019-02-02T10:10:00.783Z,99578.34
2019-02-02T10:12:31.358Z,99584.09
2019-02-02T10:15:01.839Z,99591.41
2019-02-02T10:17:32.359Z,99587.00
2019-02-02T10:20:02.889Z,99590.21
2019-02-02T10:22:33.428Z,99600.13
2019-02-02T10:25:04.034Z,99606.42
2019-02-02T10:27:34.666Z,99621.38
2019-02-02T10:30:07.795Z,99615.91
2019-02-02T10:32:38.300Z,99610.70
2019-02-02T10:35:09.004Z,99612.45
2019-02-02T10:37:39.565Z,99614.46
2019-02-02T10:40:10.692Z,99605.34
2019-02-02T10:42:41.451Z,99603.55
2019-02-02T10:45:12.592Z,99600.15
2019-02-02T10:47:43.161Z,99588.92
2019-02-02T10:50:15.370Z,99585.96
2019-02-02T10:52:46.040Z,99597.29
2019-02-02T10:55:16.661Z,99606.66
2019-02-02T10:57:47.353Z,99608.60
2019-02-02T11:00:27.719Z,99601.94
2019-02-02T11:02:58.471Z,99601.89
2019-02-02T11:05:30.109Z,99603.41
2019-02-02T11:08:00.730Z,99597.19
2019-02-02T11:10:32.444Z,99585.65
2019-02-02T11:13:03.146Z,99580.27
2019-02-02T11:15:33.642Z,99584.04
2019-02-02T11:18:05.082Z,99588.23
2019-02-02T11:20:36.690Z,99589.29
2019-02-02T11:23:07.545Z,99590.63
2019-02-02T11:25:38.280Z,99592.39
2019-02-02T11:28:09.145Z,99600.45
2019-02-02T11:30:39.914Z,99596.55
2019-02-02T11:33:10.942Z,99596.12
2019-02-02T11:35:41.489Z,99601.02
2019-02-02T11:38:12.020Z,99600.14
2019-02-02T11:40:42.535Z,99590.23
2019-02-02T11:43:13.053Z,99585.88
2019-02-02T11:45:43.553Z,99590.34
2019-02-02T11:48:15.162Z,99588.86
2019-02-02T11:50:45.790Z,99583.19
2019-02-02T11:53:16.281Z,99586.26
2019-02-02T11:55:46.867Z,99595.31
2019-02-02T11:58:17.320Z,99584.39
2019-02-02T12:00:47.834Z,99591.33
2019-02-02T12:03:18.375Z,99593.02
2019-02-02T12:05:48.953Z,99582.97
2019-02-02T12:08:19.476Z,99592.02
2019-02-02T12:10:50.003Z,99600.20
2019-02-02T12:13:20.659Z,99605.95
2019-02-02T12:15:51.170Z,99611.72
2019-02-02T12:18:21.694Z,99614.55
2019-02-02T12:20:52.216Z,99621.14
2019-02-02T12:23:22.807Z,99614.27
2019-02-02T12:25:53.476Z,99613.42
2019-02-02T12:28:23.955Z,99604.64
2019-02-02T12:30:54.563Z,99608.56
2019-02-02T12:33:25.932Z,99607.95
2019-02-02T12:35:56.699Z,99604.84
2019-02-02T12:38:27.235Z,99609.08
2019-02-02T12:40:59.733Z,99618.39
2019-02-02T12:43:30.048Z,99617.33
2019-02-02T12:46:00.619Z,99629.20
2019-02-02T12:48:32.368Z,99636.08
2019-02-02T12:51:04.654Z,99633.12
2019-02-02T12:53:35.186Z,99623.78
2019-02-02T12:56:05.759Z,99629.87
2019-02-02T12:58:36.239Z,99624.77
2019-02-02T13:01:06.843Z,99623.95
2019-02-02T13:03:37.416Z,99623.38
2019-02-02T13:06:07.938Z,99628.45
2019-02-02T13:08:38.469Z,99630.68
2019-02-02T13:11:08.998Z,99629.59
2019-02-02T13:13:42.414Z,99630.52
2019-02-02T13:16:11.780Z,99627.41
2019-02-02T13:18:42.264Z,99629.70
2019-02-02T13:21:12.805Z,99632.41
2019-02-02T13:23:43.450Z,99637.95
2019-02-02T13:26:14.033Z,99644.95
2019-02-02T13:28:44.618Z,99642.91
2019-02-02T13:31:15.181Z,99651.09
2019-02-02T13:33:45.757Z,99646.41
2019-02-02T13:36:16.398Z,99654.97
2019-02-02T13:38:46.868Z,99651.44
2019-02-02T13:41:17.430Z,99647.77
2019-02-02T13:43:47.926Z,99649.75
2019-02-02T13:46:18.436Z,99657.22
2019-02-02T13:48:51.007Z,99656.97
2019-02-02T13:51:21.134Z,99655.78
2019-02-02T13:53:51.698Z,99656.55
2019-02-02T13:56:22.514Z,99654.97
2019-02-02T13:58:53.087Z,99654.19
2019-02-02T14:01:23.738Z,99654.58
2019-02-02T14:03:54.216Z,99652.98
2019-02-02T14:06:24.745Z,99661.80
2019-02-02T14:08:55.256Z,99670.93
2019-02-02T14:11:25.785Z,99668.39
2019-02-02T14:13:56.338Z,99669.91
2019-02-02T14:16:26.869Z,99673.86
2019-02-02T14:18:57.353Z,99674.28
2019-02-02T14:21:28.055Z,99682.03
2019-02-02T14:23:58.572Z,99690.73
2019-02-02T14:26:29.078Z,99693.59
2019-02-02T14:28:59.597Z,99709.78
2019-02-02T14:31:30.091Z,99703.50
2019-02-02T14:34:00.649Z,99714.00
2019-02-02T14:36:31.174Z,99714.89
2019-02-02T14:39:01.684Z,99723.70
2019-02-02T14:41:32.166Z,99721.31
2019-02-02T14:44:02.650Z,99729.09
2019-02-02T14:46:33.225Z,99729.44
2019-02-02T14:49:03.710Z,99725.17
2019-02-02T14:51:34.235Z,99731.14
2019-02-02T14:54:05.462Z,99727.48
2019-02-02T14:56:36.014Z,99741.98
2019-02-02T14:59:06.627Z,99752.02
2019-02-02T15:01:37.253Z,99754.12
2019-02-02T15:04:07.758Z,99757.84
2019-02-02T15:06:38.325Z,99756.73
2019-02-02T15:09:09.692Z,99761.59
2019-02-02T15:11:41.002Z,99764.55
2019-02-02T15:14:11.654Z,99766.46
2019-02-02T15:16:42.200Z,99765.22
2019-02-02T15:19:12.731Z,99771.63
2019-02-02T15:21:43.606Z,99769.88
2019-02-02T15:24:14.126Z,99780.66
2019-02-02T15:26:44.611Z,99780.30
2019-02-02T15:29:15.168Z,99795.50
2019-02-02T15:31:45.688Z,99794.69
2019-02-02T15:34:16.203Z,99800.51
2019-02-02T15:36:46.756Z,99794.79
2019-02-02T15:39:17.263Z,99791.28
2019-02-02T15:41:52.911Z,99799.56
2019-02-02T15:44:20.243Z,99791.30
2019-02-02T15:49:20.129Z,99794.05
2019-02-02T15:51:51.316Z,99799.34
2019-02-02T15:54:22.161Z,99795.09
2019-02-02T15:56:54.768Z,99803.30
2019-02-02T15:59:25.211Z,99806.66
2019-02-02T16:01:55.851Z,99804.63
2019-02-02T16:04:26.541Z,99811.24
2019-02-02T16:06:57.243Z,99813.70
2019-02-02T16:09:28.086Z,99814.88
2019-02-02T16:11:59.660Z,99810.45
2019-02-02T16:14:30.496Z,99817.16
2019-02-02T16:17:39.949Z,99824.75
2019-02-02T16:20:20.708Z,99821.16
2019-02-02T16:22:58.234Z,99822.98
2019-02-02T16:25:48.703Z,99828.06
2019-02-02T16:28:38.654Z,99836.45
2019-02-02T16:31:12.957Z,99833.76
2019-02-02T16:33:43.997Z,99835.25
2019-02-02T16:36:14.673Z,99843.16
2019-02-02T16:38:45.608Z,99851.59
2019-02-02T16:41:16.693Z,99862.34
2019-02-02T16:43:48.575Z,99860.84
2019-02-02T16:46:20.877Z,99859.23
2019-02-02T16:48:51.545Z,99870.65
2019-02-02T16:51:22.234Z,99876.58
2019-02-02T16:53:52.932Z,99885.14
2019-02-02T16:56:23.568Z,99883.71
2019-02-02T16:58:54.593Z,99885.78
2019-02-02T17:01:25.264Z,99888.30
2019-02-02T17:03:56.083Z,99891.66
2019-02-02T17:06:26.887Z,99897.62
2019-02-02T17:08:57.719Z,99906.58
2019-02-02T17:11:28.590Z,99901.98
2019-02-02T17:13:59.250Z,99905.27
2019-02-02T17:16:29.896Z,99916.04
2019-02-02T17:19:00.479Z,99910.47
2019-02-02T17:21:31.084Z,99913.27
2019-02-02T17:24:01.706Z,99917.56
2019-02-02T17:26:32.303Z,99922.90
2019-02-02T17:29:02.918Z,99923.80
2019-02-02T17:31:33.687Z,99928.39
2019-02-02T17:34:04.409Z,99930.17
2019-02-02T17:36:35.126Z,99936.83
2019-02-02T17:39:07.734Z,99936.47
2019-02-02T17:41:38.501Z,99946.16
2019-02-02T17:44:09.740Z,99941.05
2019-02-02T17:46:47.170Z,99947.69
2019-02-02T17:49:15.211Z,99951.45
2019-02-02T17:54:21.066Z,99943.55
2019-02-02T17:57:00.428Z,99956.84
2019-02-02T17:59:31.097Z,99957.25
2019-02-02T18:02:02.745Z,99962.73
2019-02-02T18:04:40.998Z,99958.28
2019-02-02T18:07:06.243Z,99966.00
2019-02-02T18:09:37.001Z,99967.22
2019-02-02T18:12:07.687Z,99965.55
2019-02-02T18:14:40.977Z,99974.48
2019-02-02T18:17:14.371Z,99974.94
2019-02-02T18:33:32.659Z,100004.41
2019-02-02T18:36:03.387Z,100007.95
2019-02-02T18:38:34.359Z,100009.26
2019-02-02T18:41:05.468Z,100017.43
2019-02-02T18:43:39.980Z,100023.66
2019-02-02T18:46:20.182Z,100020.88
2019-02-02T18:48:51.245Z,100032.68
2019-02-02T18:51:22.230Z,100040.84
2019-02-02T18:53:53.030Z,100054.80
2019-02-02T18:56:23.664Z,100060.09
2019-02-02T18:58:58.203Z,100064.64
2019-02-02T19:01:29.056Z,100065.87
2019-02-02T19:04:04.793Z,100066.88
2019-02-02T19:06:40.051Z,100071.54
2019-02-02T19:09:27.612Z,100084.83
2019-02-02T19:15:02.653Z,100086.30
2019-02-02T19:17:33.526Z,100085.21
2019-02-02T19:20:08.759Z,100085.48
2019-02-02T19:55:29.388Z,100124.72
2019-02-02T19:58:00.344Z,100133.25
2019-02-02T20:00:33.167Z,100128.90
2019-02-02T20:03:05.021Z,100131.37
2019-02-02T20:05:36.207Z,100117.52
2019-02-02T20:08:07.299Z,100112.42
2019-02-02T20:10:38.635Z,100114.00
2019-02-02T20:13:10.365Z,100119.66
2019-02-02T20:15:41.182Z,100122.55
2019-02-02T20:18:12.702Z,100127.66
2019-02-02T20:20:44.055Z,100133.52
2019-02-02T20:23:14.994Z,100132.30
2019-02-02T20:25:46.611Z,100148.30
2019-02-02T20:28:17.643Z,100152.94
2019-02-02T20:31:56.896Z,100160.55
2019-02-02T21:14:51.187Z,100219.87
2019-02-02T21:17:21.856Z,100220.44
2019-02-02T21:19:52.576Z,100223.41
2019-02-02T21:22:23.369Z,100234.75
2019-02-02T21:24:54.107Z,100240.89
2019-02-02T21:27:25.001Z,100244.71
2019-02-02T21:29:56.040Z,100253.17
2019-02-02T21:32:26.614Z,100252.88
2019-02-02T21:35:02.006Z,100254.10
2019-02-02T21:37:33.180Z,100259.03
2019-02-02T21:40:30.356Z,100263.38
2019-02-02T21:43:01.310Z,100264.52
2019-02-02T21:45:32.316Z,100272.49
2019-02-02T21:48:02.990Z,100278.09
2019-02-02T21:50:33.534Z,100288.02
2019-02-02T21:53:04.138Z,100285.13
2019-02-02T21:55:34.827Z,100285.70
2019-02-02T21:58:05.416Z,100289.36
2019-02-02T22:00:41.799Z,100289.04
2019-02-02T22:03:12.494Z,100289.25
2019-02-02T22:05:42.994Z,100292.86
2019-02-02T22:08:13.742Z,100297.95
2019-02-02T22:10:44.506Z,100304.45
2019-02-02T22:13:15.591Z,100311.98
2019-02-02T22:15:46.229Z,100314.58
2019-02-02T22:18:16.713Z,100315.42
2019-02-02T22:20:47.171Z,100316.56
2019-02-02T22:23:17.756Z,100318.23
2019-02-02T22:25:49.928Z,100328.65
2019-02-02T22:28:20.453Z,100333.20
2019-02-02T22:30:51.060Z,100338.20
2019-02-02T22:33:21.701Z,100339.41
2019-02-02T22:35:52.239Z,100339.70
2019-02-02T22:38:22.865Z,100345.07
2019-02-02T22:40:53.362Z,100349.47
2019-02-02T22:43:23.919Z,100357.23
2019-02-02T22:45:54.544Z,100360.23
2019-02-02T22:48:25.044Z,100365.62
2019-02-02T22:50:55.635Z,100374.62
2019-02-02T22:53:26.182Z,100381.58
2019-02-02T22:55:56.738Z,100380.26
2019-02-02T22:58:27.599Z,100383.97
2019-02-02T23:01:33.127Z,100393.80
2019-02-02T23:04:59.000Z,100398.19
2019-02-02T23:08:39.836Z,100413.53
2019-02-02T23:11:33.921Z,100414.83
2019-02-02T23:14:40.864Z,100421.41
2019-02-02T23:17:11.375Z,100426.70
2019-02-02T23:19:41.922Z,100439.92
2019-02-02T23:22:12.476Z,100438.25
2019-02-02T23:24:42.983Z,100438.09
2019-02-02T23:27:13.470Z,100434.34
2019-02-02T23:29:44.074Z,100436.61
2019-02-02T23:32:14.605Z,100433.79
2019-02-02T23:34:45.103Z,100442.89
2019-02-02T23:37:15.697Z,100446.91
2019-02-02T23:39:46.172Z,100443.30
2019-02-02T23:42:16.724Z,100441.14
2019-02-02T23:44:47.281Z,100447.92
2019-02-02T23:47:17.810Z,100452.41
2019-02-02T23:49:48.288Z,100452.41
2019-02-02T23:52:18.805Z,100458.99
2019-02-02T23:54:49.330Z,100460.93
2019-02-02T23:57:19.838Z,100461.45
2019-02-02T23:59:50.572Z,100482.86
